Accueil
METAR-TAF:

METAR-TAF

Aéroports :

Army Air Corps Middle Wallop

Middle Wallop, Angleterre

latitude: 51-09N, longitude: 001-34W, altitude: 91 m

Observation

Le bulletin a été fait il y a 34 minutes, à 23:50 UTC
Vent 6 kt de nord
Température 14°C
Humidité 58%
Pression 1022 hPa
Visibilité 10 km ou plus

METAR: EGVP 202350Z AUTO 35006KT 9999 // BKN041/// 14/06 Q1022

Heure: 01:24 (00:24 UTC)

Prévision

Le bulletin a été fait il y a 5 heures et 1 minutes, à 19:23 UTC
Prévision valable du 20 à 21 UTC au 21 à 01 UTC
Vent 8 kt de ouest/nord-ouest
Visibilité 10 km ou plus
Nuages épars à une hauteur de 3200 ft
Probabilité 40% :
Temporairement
du 20 à 21 UTC au 20 à 23 UTC
Nuages épars à une hauteur de 1400 ft

TAF: EGVP 201923Z 2021/2101 30008KT 9999 SCT032 PROB40 TEMPO 2021/2023 SCT014

Observations et prévisions météorologiques de plus de 4000 aéroports (messages METAR et TAF).

Les stations disponibles sont représentées par des disques jaunes et rouges sur la carte.

Passer la souris dessus pour voir le nom de la station.

Cliquer dessus pour voir les observations et prévisions météorologiques.

Pour changer de carte: cliquez sur les boutons verts avec une croix noire pour zoomer, sur le bouton vert avec un tiret pour effectuer un zoom arrière, ou sur les flèches vertes pour les cartes adjacentes.


METAR-TAF: